Time;durP1;ratioP1;P1;durP2;ratioP2;P2;SDS_P1;SDS_P2;PMS_P1;PMS_P2;Temp;Humidity;BMP_temperature;BMP_pressure;BME280_temperature;BME280_humidity;BME280_pressure;Samples;Min_cycle;Max_cycle;Signal;HPM_P1;HPM_P2
2023/03/22 00:01:21;;;;;;;16.00;6.50;;;7.90;99.90;;;;;;5051432;28;20120;-73
2023/03/22 00:03:48;;;;;;;7.20;4.60;;;7.90;99.90;;;;;;5051441;28;20873;-74
2023/03/22 00:06:13;;;;;;;5.45;3.38;;;7.80;99.90;;;;;;5050146;28;20030;-74
2023/03/22 00:08:39;;;;;;;;;;;7.80;99.90;;;;;;5050686;28;20028;-74
2023/03/22 00:11:06;;;;;;;7.88;4.43;;;7.70;99.90;;;;;;5049989;28;20388;-73
2023/03/22 00:13:33;;;;;;;11.52;6.18;;;7.70;99.90;;;;;;5051305;28;20049;-74
2023/03/22 00:16:01;;;;;;;35.03;17.13;;;7.50;99.90;;;;;;5050032;28;20029;-74
2023/03/22 00:18:27;;;;;;;33.05;16.55;;;7.50;99.90;;;;;;5049845;28;20033;-74
2023/03/22 00:20:56;;;;;;;25.40;12.07;;;7.50;99.90;;;;;;5049619;28;20032;-74
2023/03/22 00:23:22;;;;;;;20.83;11.15;;;7.40;99.90;;;;;;5049718;28;20123;-74
2023/03/22 00:25:49;;;;;;;22.33;11.02;;;7.30;99.90;;;;;;5049656;28;20028;-74
2023/03/22 00:28:15;;;;;;;26.38;13.20;;;7.30;99.90;;;;;;5051051;28;20029;-74
2023/03/22 00:30:41;;;;;;;26.98;13.95;;;7.20;99.90;;;;;;5051124;28;20071;-75
2023/03/22 00:33:07;;;;;;;26.58;13.95;;;7.10;99.90;;;;;;5049615;28;20413;-74
2023/03/22 00:35:32;;;;;;;;;;;7.20;99.90;;;;;;5050097;28;20086;-72
2023/03/22 00:38:12;;;;;;;24.25;12.38;;;7.20;99.90;;;;;;5049612;28;20391;-75
2023/03/22 00:40:39;;;;;;;26.85;13.85;;;7.30;99.90;;;;;;5050889;28;20029;-74
2023/03/22 00:43:04;;;;;;;19.45;10.48;;;7.20;99.90;;;;;;5049379;28;20025;-73
2023/03/22 00:45:30;;;;;;;;;;;7.20;99.90;;;;;;5048481;28;20036;-71
2023/03/22 00:47:55;;;;;;;31.52;15.70;;;7.10;99.90;;;;;;5050724;28;20448;-74
2023/03/22 00:50:21;;;;;;;;;;;7.10;99.90;;;;;;5050963;28;20457;-72
2023/03/22 00:52:47;;;;;;;23.55;12.15;;;7.00;99.90;;;;;;5050201;28;20293;-74
2023/03/22 00:55:12;;;;;;;;;;;7.00;99.90;;;;;;5050987;28;20025;-71
2023/03/22 00:57:38;;;;;;;16.85;10.60;;;7.00;99.90;;;;;;5050376;28;19908;-74
2023/03/22 01:00:15;;;;;;;;;;;7.00;99.90;;;;;;5049655;28;20040;-74
2023/03/22 01:02:41;;;;;;;13.18;8.55;;;7.00;99.90;;;;;;5050398;28;19932;-73
2023/03/22 01:05:08;;;;;;;10.48;6.82;;;7.00;99.90;;;;;;5049061;28;20087;-73
2023/03/22 01:07:37;;;;;;;14.82;7.72;;;6.90;99.90;;;;;;5048959;28;20562;-73
2023/03/22 01:10:04;;;;;;;13.85;7.00;;;7.00;99.90;;;;;;5050232;28;20056;-73
2023/03/22 01:12:30;;;;;;;11.02;6.53;;;6.80;99.90;;;;;;5050280;28;20130;-73
2023/03/22 01:14:56;;;;;;;;;;;6.90;99.90;;;;;;5050769;28;20117;-74
2023/03/22 01:17:22;;;;;;;10.45;6.63;;;6.90;99.90;;;;;;5048705;28;19909;-74
2023/03/22 01:19:47;;;;;;;;;;;6.80;99.90;;;;;;5050579;28;20025;-73
2023/03/22 01:22:13;;;;;;;13.93;8.35;;;6.80;99.90;;;;;;5050107;28;19916;-73
2023/03/22 01:24:38;;;;;;;;;;;6.80;99.90;;;;;;5049399;28;20029;-71
2023/03/22 01:27:04;;;;;;;15.07;9.65;;;6.70;99.90;;;;;;5048785;28;20449;-74
2023/03/22 01:29:30;;;;;;;;;;;6.70;99.90;;;;;;5050103;28;20619;-74
2023/03/22 01:31:56;;;;;;;10.82;6.32;;;6.60;99.90;;;;;;5048648;28;19967;-73
2023/03/22 01:34:22;;;;;;;12.05;5.03;;;6.60;99.90;;;;;;5049768;28;20041;-74
2023/03/22 01:36:49;;;;;;;;;;;6.60;99.90;;;;;;5048932;28;20061;-72
2023/03/22 01:39:15;;;;;;;7.40;3.83;;;6.60;99.90;;;;;;5049645;28;19905;-74
2023/03/22 01:41:41;;;;;;;9.35;4.13;;;6.60;99.90;;;;;;5049568;28;20031;-74
2023/03/22 01:44:07;;;;;;;;;;;6.60;99.90;;;;;;5050262;28;20017;-73
2023/03/22 01:46:33;;;;;;;6.88;4.25;;;6.60;99.90;;;;;;5048345;28;19909;-73
2023/03/22 01:49:01;;;;;;;8.30;5.50;;;6.50;99.90;;;;;;5049439;28;20040;-73
2023/03/22 01:51:27;;;;;;;8.98;5.10;;;6.50;99.90;;;;;;5048032;28;20451;-72
2023/03/22 01:54:01;;;;;;;8.18;4.80;;;6.50;99.90;;;;;;5049626;28;20581;-74
2023/03/22 01:56:31;;;;;;;11.75;5.10;;;6.50;99.90;;;;;;5047634;28;20017;-74
2023/03/22 01:58:57;;;;;;;11.25;7.00;;;6.40;99.90;;;;;;5049480;28;20048;-73
2023/03/22 02:01:23;;;;;;;;;;;6.40;99.90;;;;;;5048339;28;20393;-74
2023/03/22 02:04:11;;;;;;;12.35;7.03;;;6.40;99.90;;;;;;5049475;28;20388;-73
2023/03/22 02:06:38;;;;;;;10.48;5.60;;;6.30;99.90;;;;;;5049348;28;20028;-73
2023/03/22 02:09:07;;;;;;;7.32;4.38;;;6.30;99.90;;;;;;5049163;28;20021;-73
2023/03/22 02:11:40;;;;;;;10.13;5.07;;;6.20;99.90;;;;;;5049082;28;20032;-74
2023/03/22 02:14:40;;;;;;;7.07;4.32;;;6.20;99.90;;;;;;5047783;28;20044;-73
2023/03/22 02:17:32;;;;;;;6.90;3.85;;;6.20;99.90;;;;;;5047538;28;20047;-73
2023/03/22 02:20:19;;;;;;;6.63;3.92;;;6.20;99.90;;;;;;5047426;28;20040;-73
2023/03/22 02:22:57;;;;;;;;;;;6.10;99.90;;;;;;5049575;28;20021;-73
2023/03/22 02:25:44;;;;;;;8.52;4.80;;;6.00;99.90;;;;;;5048683;28;20368;-73
2023/03/22 02:28:25;;;;;;;5.80;3.65;;;6.00;99.90;;;;;;5047402;28;20497;-73
2023/03/22 02:31:09;;;;;;;7.43;4.35;;;5.90;99.90;;;;;;5048640;28;20495;-73
2023/03/22 02:34:03;;;;;;;8.82;4.22;;;5.90;99.90;;;;;;5048626;28;20103;-73
2023/03/22 02:36:48;;;;;;;11.02;4.65;;;5.90;99.90;;;;;;5048584;28;20045;-73
2023/03/22 02:39:38;;;;;;;11.98;6.82;;;5.80;99.90;;;;;;5048366;28;20029;-72
2023/03/22 02:42:18;;;;;;;18.13;10.18;;;5.70;99.90;;;;;;5047323;28;20520;-73
2023/03/22 02:44:52;;;;;;;32.45;15.65;;;5.60;99.90;;;;;;5048572;28;20028;-73
2023/03/22 02:47:22;;;;;;;39.00;17.83;;;5.60;99.90;;;;;;5048417;28;20036;-73
2023/03/22 02:50:15;;;;;;;33.92;16.27;;;5.60;99.90;;;;;;5048483;28;20029;-72
2023/03/22 02:52:53;;;;;;;32.42;14.23;;;5.60;99.90;;;;;;5047145;28;20053;-72
2023/03/22 02:55:34;;;;;;;34.10;15.00;;;5.60;99.90;;;;;;5046899;28;20124;-73
2023/03/22 02:58:33;;;;;;;25.88;11.38;;;5.60;99.90;;;;;;5048330;28;20021;-72
2023/03/22 03:01:04;;;;;;;27.05;11.48;;;5.50;99.90;;;;;;5048144;28;20540;-73
2023/03/22 03:03:31;;;;;;;27.52;10.07;;;5.60;99.90;;;;;;5046871;28;20027;-72
2023/03/22 03:06:07;;;;;;;31.38;11.60;;;5.60;99.90;;;;;;5048434;28;20037;-73
2023/03/22 03:08:35;;;;;;;35.07;15.03;;;5.50;99.90;;;;;;5047480;28;20025;-72
2023/03/22 03:11:00;;;;;;;41.47;15.75;;;5.50;99.90;;;;;;5048321;28;20269;-73
2023/03/22 03:13:26;;;;;;;;;;;5.50;99.90;;;;;;5047212;28;20041;-73
2023/03/22 03:15:57;;;;;;;18.05;7.78;;;5.60;99.90;;;;;;5046795;28;20000;-74
2023/03/22 03:18:39;;;;;;;18.90;7.68;;;5.60;99.90;;;;;;5048625;28;20028;-73
2023/03/22 03:21:15;;;;;;;19.25;7.85;;;5.60;99.90;;;;;;5046945;28;20025;-73
2023/03/22 03:23:45;;;;;;;14.05;6.20;;;5.60;99.90;;;;;;5048146;28;20048;-71
2023/03/22 03:26:34;;;;;;;12.68;5.70;;;5.60;99.90;;;;;;5046781;28;20120;-73
2023/03/22 03:29:18;;;;;;;14.70;6.60;;;5.70;99.90;;;;;;5048109;28;20078;-73
2023/03/22 03:31:47;;;;;;;10.23;5.57;;;5.70;99.90;;;;;;5048077;28;20056;-73
2023/03/22 03:34:21;;;;;;;13.50;6.10;;;5.80;99.90;;;;;;5046659;28;20484;-73
2023/03/22 03:37:09;;;;;;;10.70;5.68;;;5.90;99.90;;;;;;5047998;28;20543;-73
2023/03/22 03:39:45;;;;;;;6.57;3.60;;;5.90;99.90;;;;;;5046950;28;20033;-73
2023/03/22 03:42:15;;;;;;;9.10;4.47;;;6.00;99.90;;;;;;5048137;28;20048;-73
2023/03/22 03:44:41;;;;;;;7.40;4.03;;;6.10;99.90;;;;;;5046900;28;20071;-73
2023/03/22 03:47:08;;;;;;;8.63;3.80;;;6.10;99.90;;;;;;5047861;28;20104;-73
2023/03/22 03:49:34;;;;;;;9.35;4.90;;;6.20;99.90;;;;;;5047921;28;20033;-73
2023/03/22 03:52:02;;;;;;;7.30;3.92;;;6.20;99.90;;;;;;5046712;28;20024;-73
2023/03/22 03:54:27;;;;;;;6.05;3.35;;;6.20;99.90;;;;;;5046538;28;20037;-74
2023/03/22 03:56:53;;;;;;;;;;;6.30;99.90;;;;;;5046910;28;20028;-73
2023/03/22 03:59:19;;;;;;;5.80;3.28;;;6.30;99.90;;;;;;5046190;28;19931;-73
2023/03/22 04:01:49;;;;;;;5.05;2.90;;;6.40;99.90;;;;;;5046362;28;20036;-73
2023/03/22 04:04:26;;;;;;;4.63;2.90;;;6.70;99.90;;;;;;5047899;28;20021;-73
2023/03/22 04:06:57;;;;;;;4.45;2.88;;;7.00;99.90;;;;;;5046271;28;20090;-73
2023/03/22 04:09:26;;;;;;;4.47;2.85;;;7.00;99.90;;;;;;5047633;28;20486;-73
2023/03/22 04:11:53;;;;;;;9.60;4.20;;;7.10;99.90;;;;;;5047734;28;20060;-72
2023/03/22 04:14:19;;;;;;;10.45;5.65;;;7.00;99.90;;;;;;5046375;28;20779;-72
2023/03/22 04:16:45;;;;;;;;;;;6.90;99.90;;;;;;5046901;28;20036;-73
2023/03/22 04:19:10;;;;;;;7.95;3.85;;;6.80;99.90;;;;;;5047840;28;19913;-72
2023/03/22 04:21:36;;;;;;;;;;;6.70;99.90;;;;;;5052178;28;20083;-73
2023/03/22 04:24:02;;;;;;;6.18;3.50;;;6.70;99.90;;;;;;5051284;28;19909;-73
2023/03/22 04:26:28;;;;;;;6.32;3.30;;;6.80;99.90;;;;;;5049812;28;20033;-73
2023/03/22 04:28:54;;;;;;;;;;;6.90;99.90;;;;;;5051525;28;20046;-73
2023/03/22 04:31:19;;;;;;;4.72;2.78;;;6.90;99.90;;;;;;5049509;28;19920;-73
2023/03/22 04:33:45;;;;;;;;;;;6.90;99.90;;;;;;5051443;28;20041;-73
2023/03/22 04:36:16;;;;;;;10.68;5.65;;;6.90;99.90;;;;;;5049787;28;19912;-74
2023/03/22 04:38:42;;;;;;;10.55;5.45;;;6.80;99.90;;;;;;5050874;28;20039;-73
2023/03/22 04:41:09;;;;;;;9.65;4.43;;;6.70;99.90;;;;;;5050804;28;20075;-73
2023/03/22 04:43:38;;;;;;;6.40;4.57;;;6.60;99.90;;;;;;5049449;28;20143;-73
2023/03/22 04:46:11;;;;;;;7.00;3.75;;;6.50;99.90;;;;;;5050886;28;20025;-73
2023/03/22 04:48:38;;;;;;;6.18;3.30;;;6.50;99.90;;;;;;5050823;28;20101;-73
2023/03/22 04:51:06;;;;;;;6.43;4.07;;;6.40;99.90;;;;;;5049264;28;20378;-73
2023/03/22 04:53:37;;;;;;;8.60;5.25;;;6.40;99.90;;;;;;5050690;28;20047;-73
2023/03/22 04:56:10;;;;;;;8.48;4.50;;;6.30;99.90;;;;;;5050614;28;20028;-73
2023/03/22 04:58:39;;;;;;;14.10;7.50;;;6.40;99.90;;;;;;5050548;28;20083;-73
2023/03/22 05:01:05;;;;;;;15.30;7.95;;;6.40;99.90;;;;;;5050329;28;20025;-74
2023/03/22 05:03:32;;;;;;;12.95;6.28;;;6.30;99.90;;;;;;5049112;28;20037;-73
2023/03/22 05:05:59;;;;;;;15.10;7.95;;;6.30;99.90;;;;;;5050504;28;20021;-72
2023/03/22 05:08:27;;;;;;;11.95;6.30;;;6.30;99.90;;;;;;5048895;28;20033;-74
2023/03/22 05:10:54;;;;;;;9.52;5.70;;;6.30;99.90;;;;;;5050531;28;20096;-73
2023/03/22 05:13:21;;;;;;;7.93;4.60;;;6.30;99.90;;;;;;5048433;28;20383;-73
2023/03/22 05:15:48;;;;;;;10.88;5.10;;;6.20;99.90;;;;;;5050062;28;20086;-73
2023/03/22 05:18:19;;;;;;;11.02;5.53;;;6.20;99.90;;;;;;5049973;28;20116;-73
2023/03/22 05:20:46;;;;;;;12.82;7.13;;;6.20;99.90;;;;;;5048770;28;20033;-73
2023/03/22 05:23:18;;;;;;;10.60;5.70;;;6.20;99.90;;;;;;5048133;28;20036;-74
2023/03/22 05:25:45;;;;;;;10.07;6.40;;;6.30;99.90;;;;;;5049936;28;20519;-73
2023/03/22 05:28:13;;;;;;;8.45;5.97;;;6.40;99.90;;;;;;5049715;28;20033;-73
2023/03/22 05:30:42;;;;;;;8.50;5.50;;;6.40;99.90;;;;;;5049069;28;20060;-73
2023/03/22 05:33:08;;;;;;;7.13;4.93;;;6.60;99.90;;;;;;5048822;28;20159;-74
2023/03/22 05:35:35;;;;;;;;;;;6.80;99.90;;;;;;5050078;28;20477;-74
2023/03/22 05:38:01;;;;;;;8.30;5.18;;;7.00;99.90;;;;;;5048108;28;20016;-73
2023/03/22 05:40:27;;;;;;;;;;;7.30;99.90;;;;;;5050162;28;20036;-73
2023/03/22 05:42:53;;;;;;;8.80;5.07;;;7.50;99.90;;;;;;5049454;28;19905;-73
2023/03/22 05:45:20;;;;;;;6.93;4.28;;;7.70;99.90;;;;;;5049226;28;20499;-73
2023/03/22 05:47:47;;;;;;;7.43;4.53;;;7.90;99.90;;;;;;5049311;28;20033;-72
2023/03/22 05:50:16;;;;;;;12.63;7.57;;;8.20;99.90;;;;;;5049437;28;20099;-73
2023/03/22 05:52:43;;;;;;;17.23;9.82;;;8.50;99.90;;;;;;5048216;28;20033;-73
2023/03/22 05:55:16;;;;;;;19.45;10.88;;;8.70;99.90;;;;;;5047988;28;20035;-73
2023/03/22 05:57:43;;;;;;;17.08;10.18;;;8.80;99.90;;;;;;5048172;28;20086;-73
2023/03/22 06:00:15;;;;;;;16.35;9.00;;;9.00;99.90;;;;;;5049141;28;20020;-73
2023/03/22 06:02:42;;;;;;;14.15;9.38;;;9.20;99.90;;;;;;5048291;28;20029;-74
2023/03/22 06:05:10;;;;;;;33.53;18.38;;;9.40;99.90;;;;;;5048102;28;20489;-73
2023/03/22 06:07:36;;;;;;;25.42;14.18;;;9.60;99.90;;;;;;5049265;28;20028;-73
2023/03/22 06:10:03;;;;;;;13.50;7.53;;;9.80;99.90;;;;;;5049222;28;20033;-74
2023/03/22 06:12:30;;;;;;;11.75;7.05;;;9.90;99.90;;;;;;5047529;28;20050;-74
2023/03/22 06:14:56;;;;;;;11.95;6.82;;;10.10;99.90;;;;;;5047991;28;20037;-74
2023/03/22 06:17:22;;;;;;;;;;;10.40;99.90;;;;;;5049321;28;20445;-74
2023/03/22 06:19:49;;;;;;;10.27;6.55;;;10.40;99.90;;;;;;5047763;28;20392;-74
2023/03/22 06:22:14;;;;;;;10.57;7.07;;;10.50;99.90;;;;;;5047097;28;20119;-74
2023/03/22 06:24:41;;;;;;;;;;;10.80;99.90;;;;;;5048035;28;20818;-74
2023/03/22 06:27:07;;;;;;;24.40;15.63;;;11.10;99.90;;;;;;5047271;28;20109;-73
2023/03/22 06:29:33;;;;;;;20.52;13.38;;;11.40;99.90;;;;;;5048650;28;20122;-74
2023/03/22 06:31:59;;;;;;;;;;;11.70;99.90;;;;;;5049095;28;20076;-74
2023/03/22 06:34:25;;;;;;;40.55;19.25;;;11.90;99.90;;;;;;5047289;28;19916;-74
2023/03/22 06:36:54;;;;;;;;;;;12.10;99.90;;;;;;5049065;28;20226;-72
2023/03/22 06:39:20;;;;;;;27.05;14.80;;;12.40;99.90;;;;;;5048353;28;19947;-74
2023/03/22 06:41:46;;;;;;;30.65;12.32;;;12.60;99.90;;;;;;5048266;28;20017;-73
2023/03/22 06:44:12;;;;;;;22.00;13.30;;;13.00;99.90;;;;;;5047259;28;20063;-74
2023/03/22 06:46:38;;;;;;;;;;;13.60;99.90;;;;;;5048949;28;20064;-74
2023/03/22 06:49:04;;;;;;;21.38;11.82;;;14.60;96.10;;;;;;5047181;28;20269;-73
2023/03/22 06:51:29;;;;;;;14.45;8.05;;;15.40;87.90;;;;;;5048246;28;20033;-74
2023/03/22 06:53:55;;;;;;;12.68;5.80;;;15.90;80.10;;;;;;5048364;28;20509;-74
2023/03/22 06:56:21;;;;;;;8.38;4.90;;;16.30;75.90;;;;;;5048601;28;20032;-74
2023/03/22 06:58:47;;;;;;;7.70;3.75;;;16.40;73.90;;;;;;5047159;28;20029;-74
2023/03/22 07:01:13;;;;;;;4.78;3.30;;;16.20;70.70;;;;;;5048135;28;20029;-74
2023/03/22 07:03:39;;;;;;;5.93;3.63;;;16.30;71.60;;;;;;5048222;28;20076;-74
2023/03/22 07:06:07;;;;;;;5.65;3.60;;;16.60;71.10;;;;;;5046566;28;20589;-74
2023/03/22 07:08:33;;;;;;;6.10;4.00;;;17.10;70.00;;;;;;5048222;28;20031;-74
2023/03/22 07:10:59;;;;;;;5.65;3.95;;;17.50;68.30;;;;;;5048371;28;20032;-74
2023/03/22 07:13:25;;;;;;;6.22;3.50;;;17.90;66.30;;;;;;5046340;28;20029;-75
2023/03/22 07:15:58;;;;;;;5.57;3.55;;;17.90;66.30;;;;;;5047253;28;20032;-74
2023/03/22 07:18:24;;;;;;;5.57;3.00;;;17.80;66.20;;;;;;5048278;28;20025;-74
2023/03/22 07:20:50;;;;;;;5.88;3.38;;;17.80;65.20;;;;;;5048061;28;20052;-73
2023/03/22 07:23:16;;;;;;;3.80;2.40;;;17.90;65.30;;;;;;5046742;28;20040;-73
2023/03/22 07:25:46;;;;;;;4.18;3.00;;;17.80;65.00;;;;;;5046824;28;20063;-74
2023/03/22 07:28:13;;;;;;;4.10;2.42;;;17.80;64.60;;;;;;5046841;28;20166;-73
2023/03/22 07:30:39;;;;;;;3.95;2.70;;;18.10;64.20;;;;;;5047808;28;20045;-75
2023/03/22 07:33:06;;;;;;;3.13;2.42;;;19.10;63.30;;;;;;5047576;28;20512;-74
2023/03/22 07:35:32;;;;;;;3.70;2.35;;;19.90;60.20;;;;;;5047878;28;20040;-74
2023/03/22 07:37:59;;;;;;;3.72;2.67;;;20.10;58.40;;;;;;5047791;28;20162;-75
2023/03/22 07:40:26;;;;;;;4.97;3.03;;;19.50;57.30;;;;;;5047655;28;20112;-75
2023/03/22 07:42:52;;;;;;;4.60;2.97;;;18.90;58.50;;;;;;5047849;28;20517;-74
2023/03/22 07:45:19;;;;;;;5.10;3.05;;;18.50;59.10;;;;;;5047974;28;20538;-74
2023/03/22 07:47:45;;;;;;;4.25;2.80;;;17.90;60.60;;;;;;5047725;28;20013;-74
2023/03/22 07:50:12;;;;;;;5.72;3.20;;;17.80;62.30;;;;;;5046480;28;20116;-75
2023/03/22 07:52:39;;;;;;;8.25;2.97;;;18.40;62.10;;;;;;5047763;28;20025;-73
2023/03/22 07:55:05;;;;;;;5.13;3.00;;;19.00;59.70;;;;;;5050754;28;20029;-75
2023/03/22 07:57:31;;;;;;;4.57;3.15;;;19.40;58.70;;;;;;5049980;28;20028;-74
2023/03/22 07:59:57;;;;;;;5.38;3.50;;;19.60;58.30;;;;;;5051358;28;20045;-74
2023/03/22 08:02:22;;;;;;;3.60;2.70;;;19.80;57.80;;;;;;5049983;28;20542;-74
2023/03/22 08:04:49;;;;;;;6.47;4.15;;;19.70;57.20;;;;;;5051440;28;20040;-74
2023/03/22 08:07:17;;;;;;;4.75;3.15;;;19.30;56.90;;;;;;5051280;28;20032;-74
2023/03/22 08:09:43;;;;;;;5.28;3.55;;;18.70;58.30;;;;;;5050050;28;20560;-74
2023/03/22 08:12:09;;;;;;;5.00;3.63;;;18.20;59.70;;;;;;5050010;28;20029;-75
2023/03/22 08:14:36;;;;;;;4.72;3.28;;;17.90;60.80;;;;;;5049803;28;20382;-74
2023/03/22 08:17:02;;;;;;;4.28;3.30;;;17.70;61.40;;;;;;5051394;28;20033;-74
2023/03/22 08:19:28;;;;;;;4.47;3.40;;;17.60;62.10;;;;;;5050129;28;20119;-73
2023/03/22 08:21:53;;;;;;;5.43;3.40;;;17.80;62.60;;;;;;5049821;28;20158;-74
2023/03/22 08:24:19;;;;;;;4.72;2.90;;;18.40;62.10;;;;;;5049610;28;20029;-74
2023/03/22 08:26:48;;;;;;;3.92;2.90;;;19.40;59.80;;;;;;5050809;28;20059;-75
2023/03/22 08:29:14;;;;;;;3.97;2.63;;;20.20;57.40;;;;;;5049393;28;20505;-75
2023/03/22 08:31:41;;;;;;;6.53;4.20;;;20.60;55.10;;;;;;5049572;28;20170;-73
2023/03/22 08:34:06;;;;;;;3.95;3.08;;;21.00;54.80;;;;;;5049388;28;20078;-75
2023/03/22 08:36:32;;;;;;;4.90;2.90;;;21.00;53.50;;;;;;5049552;28;20122;-75
2023/03/22 08:38:58;;;;;;;4.75;3.50;;;20.90;53.00;;;;;;5049679;28;20032;-74
2023/03/22 08:41:24;;;;;;;5.15;3.67;;;21.00;52.90;;;;;;5050495;28;20047;-75
2023/03/22 08:43:49;;;;;;;5.22;4.00;;;21.30;49.80;;;;;;5049287;28;20029;-75
2023/03/22 08:46:15;;;;;;;4.53;3.33;;;21.10;49.50;;;;;;5050764;28;20100;-75
2023/03/22 08:48:49;;;;;;;7.55;5.32;;;21.00;50.00;;;;;;5050924;28;20108;-75
2023/03/22 08:51:21;;;;;;;6.63;3.83;;;20.90;49.80;;;;;;5051018;28;20128;-75
2023/03/22 08:53:48;;;;;;;4.93;3.33;;;20.60;50.10;;;;;;5050529;28;20037;-75
2023/03/22 08:56:15;;;;;;;5.07;3.35;;;21.00;50.60;;;;;;5049301;28;20029;-75
2023/03/22 08:58:45;;;;;;;4.85;3.20;;;21.20;48.80;;;;;;5049165;28;20378;-74
2023/03/22 09:01:16;;;;;;;4.85;3.05;;;21.30;48.80;;;;;;5048945;28;20534;-74
2023/03/22 09:03:42;;;;;;;7.60;3.40;;;21.30;48.50;;;;;;5050224;28;20029;-74
2023/03/22 09:06:09;;;;;;;10.02;4.10;;;21.30;48.00;;;;;;5049320;28;20110;-75
2023/03/22 09:08:37;;;;;;;6.25;4.15;;;20.90;47.10;;;;;;5048582;28;20025;-75
2023/03/22 09:11:02;;;;;;;4.75;2.80;;;20.70;49.00;;;;;;5050414;28;20115;-75
2023/03/22 09:13:30;;;;;;;3.95;2.72;;;20.90;48.50;;;;;;5050058;28;20175;-75
2023/03/22 09:15:56;;;;;;;4.63;2.95;;;21.10;48.30;;;;;;5049090;28;20025;-75
2023/03/22 09:18:23;;;;;;;5.88;3.20;;;21.10;47.70;;;;;;5050169;28;20028;-73
2023/03/22 09:20:50;;;;;;;6.45;2.80;;;20.70;47.80;;;;;;5050071;28;20021;-73
2023/03/22 09:23:15;;;;;;;3.47;2.75;;;20.70;48.20;;;;;;5049984;28;20033;-75
2023/03/22 09:25:48;;;;;;;5.18;2.40;;;21.10;48.00;;;;;;5049969;28;20037;-74
2023/03/22 09:28:15;;;;;;;5.05;2.97;;;21.70;47.80;;;;;;5049890;28;20032;-75
2023/03/22 09:30:41;;;;;;;7.60;2.38;;;22.40;45.20;;;;;;5049699;28;20045;-75
2023/03/22 09:33:07;;;;;;;3.40;2.33;;;22.90;45.30;;;;;;5048414;28;20167;-75
2023/03/22 09:35:33;;;;;;;3.65;2.67;;;23.60;44.10;;;;;;5048522;28;20127;-76
2023/03/22 09:37:59;;;;;;;3.72;2.78;;;23.80;42.90;;;;;;5048861;28;20485;-75
2023/03/22 09:40:30;;;;;;;7.45;2.80;;;23.90;42.60;;;;;;5048540;28;20052;-75
2023/03/22 09:43:04;;;;;;;3.97;2.75;;;23.80;41.80;;;;;;5048535;28;20028;-75
2023/03/22 09:45:36;;;;;;;4.57;3.50;;;23.40;42.50;;;;;;5049551;28;20147;-75
2023/03/22 09:48:05;;;;;;;3.50;2.63;;;23.00;42.10;;;;;;5048485;28;20028;-74
2023/03/22 09:50:32;;;;;;;4.38;3.10;;;22.90;43.00;;;;;;5048099;28;20025;-75
2023/03/22 09:52:59;;;;;;;4.10;3.03;;;23.00;43.70;;;;;;5047883;28;20123;-75
2023/03/22 09:56:00;;;;;;;5.78;3.35;;;23.00;43.60;;;;;;5049041;28;20568;-75
2023/03/22 09:58:53;;;;;;;7.57;2.85;;;23.30;41.50;;;;;;5036715;28;20187;-75
2023/03/22 10:01:22;;;;;;;5.38;2.72;;;23.20;43.60;;;;;;5048970;28;20064;-75
2023/03/22 10:04:17;;;;;;;3.88;3.05;;;23.50;43.70;;;;;;5047669;28;20044;-75
2023/03/22 10:06:50;;;;;;;5.45;2.63;;;23.80;43.80;;;;;;5049016;28;20032;-75
2023/03/22 10:09:26;;;;;;;3.67;2.88;;;24.10;43.20;;;;;;5049175;28;20033;-75
2023/03/22 10:11:59;;;;;;;4.93;3.17;;;24.30;42.30;;;;;;5048759;28;20025;-75
2023/03/22 10:15:00;;;;;;;3.78;2.70;;;24.50;42.00;;;;;;5048866;28;20056;-75
2023/03/22 10:17:28;;;;;;;3.97;2.33;;;24.40;41.70;;;;;;5047328;28;20093;-74
2023/03/22 10:20:20;;;;;;;3.72;2.85;;;24.10;42.00;;;;;;5048658;28;20036;-75
2023/03/22 10:22:47;;;;;;;3.83;2.58;;;23.80;42.20;;;;;;5047400;28;20066;-75
2023/03/22 10:25:20;;;;;;;4.03;2.92;;;23.70;42.90;;;;;;5047456;28;20116;-75
2023/03/22 10:27:49;;;;;;;3.80;2.85;;;23.90;42.50;;;;;;5048952;28;20056;-76
2023/03/22 10:30:22;;;;;;;3.78;2.90;;;23.90;42.30;;;;;;5047216;28;20049;-74
2023/03/22 10:33:11;;;;;;;4.07;2.83;;;23.40;43.00;;;;;;5047116;28;20033;-75
2023/03/22 10:35:37;;;;;;;5.85;3.03;;;23.40;44.10;;;;;;5047283;28;20136;-74
2023/03/22 10:38:06;;;;;;;4.78;2.95;;;23.30;44.50;;;;;;5047701;28;20033;-74
2023/03/22 10:40:34;;;;;;;5.50;3.05;;;23.10;44.90;;;;;;5047449;28;20497;-75
2023/03/22 10:43:24;;;;;;;8.40;3.35;;;22.90;44.90;;;;;;5048904;28;20021;-75
2023/03/22 10:45:53;;;;;;;4.20;2.67;;;22.30;45.30;;;;;;5048211;28;20105;-74
2023/03/22 10:48:31;;;;;;;6.60;3.28;;;21.90;46.50;;;;;;5048347;28;20033;-72
2023/03/22 10:50:58;;;;;;;6.50;2.90;;;21.50;47.20;;;;;;5048435;28;20025;-74
2023/03/22 10:53:31;;;;;;;5.30;3.03;;;21.10;47.80;;;;;;5048268;28;20120;-74
2023/03/22 10:55:57;;;;;;;5.30;3.03;;;20.70;48.00;;;;;;5047045;28;20527;-73
2023/03/22 10:58:29;;;;;;;5.05;3.40;;;20.50;48.80;;;;;;5048245;28;20025;-74
2023/03/22 11:01:01;;;;;;;4.97;3.50;;;20.50;49.80;;;;;;5048369;28;20127;-74
2023/03/22 11:03:39;;;;;;;3.28;2.50;;;20.40;49.40;;;;;;5047516;28;20115;-75
2023/03/22 11:06:12;;;;;;;7.05;3.78;;;20.30;49.20;;;;;;5048312;28;20082;-73
2023/03/22 11:08:45;;;;;;;7.03;3.38;;;20.50;49.70;;;;;;5046828;28;20029;-74
2023/03/22 11:11:35;;;;;;;4.05;3.30;;;20.40;50.00;;;;;;5047781;28;20523;-75
2023/03/22 11:14:25;;;;;;;5.40;3.45;;;20.30;49.60;;;;;;5047569;28;20148;-74
2023/03/22 11:16:58;;;;;;;5.57;3.53;;;20.10;49.40;;;;;;5046768;28;20477;-74
2023/03/22 11:19:28;;;;;;;5.90;3.40;;;20.10;50.40;;;;;;5045793;28;20029;-83
2023/03/22 11:21:56;;;;;;;6.22;3.95;;;20.10;50.60;;;;;;5040085;28;20030;-83
2023/03/22 11:24:28;;;;;;;5.70;3.15;;;20.10;51.00;;;;;;5027284;28;20513;-83
2023/03/22 11:27:07;;;;;;;9.50;4.07;;;20.10;50.20;;;;;;5035040;28;20046;-82
2023/03/22 11:29:45;;;;;;;5.05;3.20;;;19.90;49.40;;;;;;5043525;28;20429;-86
2023/03/22 11:32:24;;;;;;;4.18;2.63;;;19.70;50.00;;;;;;5044507;28;20041;-84
2023/03/22 11:34:59;;;;;;;4.65;3.42;;;19.80;50.70;;;;;;5052100;28;20040;-84
2023/03/22 11:37:25;;;;;;;4.60;2.60;;;19.80;50.50;;;;;;5052045;28;20126;-84
2023/03/22 11:39:57;;;;;;;4.90;3.65;;;19.90;50.10;;;;;;5052834;28;20094;-85
2023/03/22 11:42:23;;;;;;;4.05;2.58;;;20.00;50.10;;;;;;5054466;28;20029;-87
2023/03/22 11:44:49;;;;;;;5.25;3.78;;;20.00;49.00;;;;;;5051219;28;20086;-82
2023/03/22 11:47:15;;;;;;;4.35;3.00;;;20.10;48.80;;;;;;5049565;28;20361;-83
2023/03/22 11:49:50;;;;;;;3.58;2.15;;;20.00;49.20;;;;;;5048881;28;20872;-82
2023/03/22 11:52:26;;;;;;;5.47;3.07;;;20.00;49.60;;;;;;5049844;28;20393;-81
2023/03/22 11:54:54;;;;;;;4.05;2.30;;;19.90;49.10;;;;;;5049922;28;20556;-82
2023/03/22 11:57:24;;;;;;;6.13;2.38;;;19.80;48.30;;;;;;5049055;28;20033;-82
2023/03/22 11:59:56;;;;;;;2.72;1.95;;;19.70;48.90;;;;;;5050304;28;20087;-82
2023/03/22 12:02:29;;;;;;;4.13;2.42;;;19.80;48.80;;;;;;5050114;28;20077;-83
2023/03/22 12:05:21;;;;;;;6.53;2.33;;;19.70;48.90;;;;;;5050543;28;20109;-85
2023/03/22 12:07:52;;;;;;;4.57;2.08;;;19.40;48.60;;;;;;5051674;28;20035;-83
2023/03/22 12:10:37;;;;;;;4.47;2.25;;;19.30;49.70;;;;;;5051638;28;20182;-82
2023/03/22 12:13:24;;;;;;;3.90;2.50;;;19.30;49.40;;;;;;5053474;28;20028;-82
2023/03/22 12:15:55;;;;;;;5.30;2.67;;;19.10;50.30;;;;;;5052748;28;20099;-84
2023/03/22 12:18:37;;;;;;;4.38;2.90;;;18.80;51.30;;;;;;5052495;28;20029;-84
2023/03/22 12:21:03;;;;;;;6.20;2.50;;;18.80;51.50;;;;;;5051213;28;20119;-83
2023/03/22 12:23:31;;;;;;;4.28;2.80;;;18.80;51.50;;;;;;5051777;28;20524;-83
2023/03/22 12:26:16;;;;;;;4.75;3.15;;;18.80;51.70;;;;;;5053176;28;20029;-83
2023/03/22 12:29:05;;;;;;;4.10;3.20;;;18.80;51.50;;;;;;5052576;28;20029;-84
2023/03/22 12:31:36;;;;;;;5.13;2.97;;;18.70;52.20;;;;;;5051784;28;20037;-83
2023/03/22 12:34:07;;;;;;;5.05;3.13;;;18.40;52.80;;;;;;5051275;28;20048;-83
2023/03/22 12:36:41;;;;;;;4.93;3.20;;;18.30;53.20;;;;;;5052762;28;20048;-82
2023/03/22 12:39:16;;;;;;;4.78;3.10;;;18.10;53.60;;;;;;5052977;28;20375;-84
2023/03/22 12:41:47;;;;;;;5.03;3.45;;;18.00;54.20;;;;;;5051452;28;20039;-82
2023/03/22 12:44:34;;;;;;;4.07;2.63;;;17.80;54.70;;;;;;5049243;28;20029;-83
2023/03/22 12:47:02;;;;;;;4.05;2.80;;;17.70;55.30;;;;;;5047826;28;20047;-81
2023/03/22 12:49:36;;;;;;;4.32;3.00;;;17.60;55.60;;;;;;5049059;28;20021;-81
2023/03/22 12:52:17;;;;;;;5.50;3.72;;;17.60;56.60;;;;;;5049270;28;20044;-82
2023/03/22 12:54:46;;;;;;;5.55;4.18;;;17.60;56.70;;;;;;5049719;28;20036;-80
2023/03/22 12:57:16;;;;;;;6.28;3.75;;;17.50;57.00;;;;;;5047237;28;20115;-80
2023/03/22 12:59:45;;;;;;;5.80;3.45;;;17.60;57.60;;;;;;5049134;28;20473;-82
2023/03/22 13:02:42;;;;;;;6.20;3.22;;;17.60;57.00;;;;;;5044854;28;20046;-82
2023/03/22 13:05:10;;;;;;;4.70;3.15;;;17.80;57.60;;;;;;5028755;28;20034;-82
2023/03/22 13:07:37;;;;;;;5.85;3.20;;;18.00;57.40;;;;;;5027465;28;20394;-82
2023/03/22 13:10:28;;;;;;;6.22;3.65;;;18.20;57.10;;;;;;5028318;28;20039;-82
2023/03/22 13:13:22;;;;;;;6.57;3.88;;;18.30;56.90;;;;;;5027765;28;20025;-82